Terminal Aerodrome Forecast
Issued by NWS Grand Forks, ND

Home | Current Version | Previous Version | Text Only | Print | Product List | Glossary Off
Versions: 1 2 3 4 5 6 7 8 9 10 11 12 13 14 15

000
FTUS43 KFGF 020500
TAFFAR
TAF
KFAR 020520Z 0206/0306 16008KT P6SM SCT250
     FM021500 18013G18KT P6SM SCT250
     FM021800 19017G26KT P6SM BKN250
     FM030000 19015G24KT P6SM VCSH BKN120
      TEMPO 0301/0305 -SHRA BKN080=

USA.gov is the U.S. government's official web portal to all federal, state and local government web resources and services.